Time;durP1;ratioP1;P1;durP2;ratioP2;P2;SDS_P1;SDS_P2;PMS_P1;PMS_P2;Temp;Humidity;BMP_temperature;BMP_pressure;BME280_temperature;BME280_humidity;BME280_pressure;Samples;Min_cycle;Max_cycle;Signal;HPM_P1;HPM_P2
2023/03/09 00:00:10;;;;;;;;;;;9.60;76.20;;;;;;5020397;28;88767;-39
2023/03/09 00:02:35;;;;;;;;;;;9.70;76.30;;;;;;5014011;28;88244;-39
2023/03/09 00:05:01;;;;;;;;;;;9.60;76.20;;;;;;5006235;28;87586;-39
2023/03/09 00:07:30;;;;;;;;;;;9.60;76.30;;;;;;5008258;28;89248;-39
2023/03/09 00:09:56;;;;;;;;;;;9.60;76.30;;;;;;5009875;28;88442;-39
2023/03/09 00:12:22;;;;;;;;;;;9.60;76.20;;;;;;5003155;28;89884;-39
2023/03/09 00:14:54;;;;;;;;;;;9.60;76.20;;;;;;5019983;28;89482;-39
2023/03/09 00:17:19;;;;;;;;;;;9.60;76.20;;;;;;5003156;28;87030;-40
2023/03/09 00:19:45;;;;;;;;;;;9.60;76.20;;;;;;5003136;28;88644;-37
2023/03/09 00:22:10;;;;;;;;;;;9.60;76.40;;;;;;5002739;28;89195;-40
2023/03/09 00:24:45;;;;;;;;;;;9.60;76.30;;;;;;5004686;28;87225;-39
2023/03/09 00:27:11;;;;;;;;;;;9.60;76.30;;;;;;5020304;28;86714;-39
2023/03/09 00:29:37;;;;;;;;;;;9.50;76.10;;;;;;5009793;28;87121;-39
2023/03/09 00:32:02;;;;;;;;;;;9.60;76.20;;;;;;5003393;28;87729;-39
2023/03/09 00:34:28;;;;;;;;;;;9.50;76.10;;;;;;5007469;28;88502;-39
2023/03/09 00:36:53;;;;;;;;;;;9.60;76.20;;;;;;5008756;28;87687;-39
2023/03/09 00:39:19;;;;;;;;;;;9.50;76.10;;;;;;5002571;28;89347;-39
2023/03/09 00:41:44;;;;;;;;;;;9.60;76.10;;;;;;5002521;28;89437;-39
2023/03/09 00:44:10;;;;;;;;;;;9.60;76.20;;;;;;5017731;28;87663;-40
2023/03/09 00:46:36;;;;;;;;;;;9.60;76.00;;;;;;5013557;28;88865;-39
2023/03/09 00:49:05;;;;;;;;;;;9.60;76.00;;;;;;5014296;28;87144;-39
2023/03/09 00:51:32;;;;;;;;;;;9.60;76.10;;;;;;5006795;28;86950;-39
2023/03/09 00:53:58;;;;;;;;;;;9.50;75.90;;;;;;5006859;28;88664;-40
2023/03/09 00:56:29;;;;;;;;;;;9.60;76.10;;;;;;5002563;28;87145;-39
2023/03/09 00:58:55;;;;;;;;;;;9.50;76.00;;;;;;5002178;28;88891;-39
2023/03/09 01:01:21;;;;;;;;;;;9.50;76.00;;;;;;5002158;28;89765;-38
2023/03/09 01:03:46;;;;;;;;;;;9.50;76.00;;;;;;5016698;28;87178;-39
2023/03/09 01:06:12;;;;;;;;;;;9.50;75.90;;;;;;5006971;28;88744;-39
2023/03/09 01:08:38;;;;;;;;;;;9.50;75.90;;;;;;5004754;28;89281;-39
2023/03/09 01:11:05;;;;;;;;;;;9.40;76.00;;;;;;5005548;28;89033;-39
2023/03/09 01:13:30;;;;;;;;;;;9.50;76.00;;;;;;5015298;28;89452;-40
2023/03/09 01:15:56;;;;;;;;;;;9.50;75.90;;;;;;5016738;28;86428;-40
2023/03/09 01:18:21;;;;;;;;;;;9.50;76.00;;;;;;5016579;28;88166;-39
2023/03/09 01:20:47;;;;;;;;;;;9.50;76.00;;;;;;5018296;28;89250;-39
2023/03/09 01:23:12;;;;;;;;;;;9.40;75.90;;;;;;5015562;28;88127;-39
2023/03/09 01:25:38;;;;;;;;;;;9.40;75.90;;;;;;5018185;28;89601;-39
2023/03/09 01:28:03;;;;;;;;;;;9.40;76.00;;;;;;5016140;28;87059;-39
2023/03/09 01:30:29;;;;;;;;;;;9.40;75.80;;;;;;5019898;28;88093;-39
2023/03/09 01:32:54;;;;;;;;;;;9.40;75.90;;;;;;5020351;28;89477;-39
2023/03/09 01:35:20;;;;;;;;;;;9.40;75.80;;;;;;5016016;28;87624;-40
2023/03/09 01:37:45;;;;;;;;;;;9.40;75.90;;;;;;5010089;28;88818;-39
2023/03/09 01:40:16;;;;;;;;;;;9.40;75.90;;;;;;5022614;28;88840;-39
2023/03/09 01:42:42;;;;;;;;;;;9.40;75.90;;;;;;5021185;28;87730;-39
2023/03/09 01:45:22;;;;;;;;;;;9.30;76.00;;;;;;5020868;28;87087;-39
2023/03/09 01:47:49;;;;;;;;;;;9.30;76.10;;;;;;5019285;28;88905;-39
2023/03/09 01:50:14;;;;;;;;;;;9.30;75.90;;;;;;5005707;28;87251;-39
2023/03/09 01:52:42;;;;;;;;;;;9.30;75.90;;;;;;5014394;28;89011;-39
2023/03/09 01:55:10;;;;;;;;;;;9.30;75.90;;;;;;5005216;28;87116;-39
2023/03/09 01:57:44;;;;;;;;;;;9.30;75.90;;;;;;5008430;28;89110;-39
2023/03/09 02:00:13;;;;;;;;;;;9.30;76.00;;;;;;5005179;28;89356;-39
2023/03/09 02:02:40;;;;;;;;;;;9.30;75.90;;;;;;5005522;28;87166;-39
2023/03/09 02:05:07;;;;;;;;;;;9.30;75.90;;;;;;5005854;28;87598;-39
2023/03/09 02:07:35;;;;;;;;;;;9.20;75.90;;;;;;5004754;28;89854;-39
2023/03/09 02:10:04;;;;;;;;;;;9.30;76.00;;;;;;5019668;28;87894;-39
2023/03/09 02:12:30;;;;;;;;;;;9.30;75.90;;;;;;5004388;28;88745;-39
2023/03/09 02:14:55;;;;;;;;;;;9.20;75.80;;;;;;5007727;28;89516;-39
2023/03/09 02:17:22;;;;;;;;;;;9.20;76.00;;;;;;5016337;28;88869;-39
2023/03/09 02:19:59;;;;;;;;;;;9.20;75.80;;;;;;5019175;28;89503;-39
2023/03/09 02:22:25;;;;;;;;;;;9.20;76.00;;;;;;5019915;28;87167;-39
2023/03/09 02:24:54;;;;;;;;;;;9.20;76.00;;;;;;5022103;28;89289;-39
2023/03/09 02:27:24;;;;;;;;;;;9.20;76.00;;;;;;5019466;28;88191;-39
2023/03/09 02:29:50;;;;;;;;;;;9.20;76.60;;;;;;5021559;28;86359;-40
2023/03/09 02:32:16;;;;;;;;;;;9.20;76.00;;;;;;5015238;28;87952;-39
2023/03/09 02:34:41;;;;;;;;;;;9.20;76.00;;;;;;5023120;28;89836;-39
2023/03/09 02:37:27;;;;;;;;;;;9.20;75.90;;;;;;5017955;28;89040;-39
2023/03/09 02:39:55;;;;;;;;;;;9.20;75.90;;;;;;5006569;28;89420;-39
2023/03/09 02:42:20;;;;;;;;;;;9.20;76.00;;;;;;5019274;28;87199;-39
2023/03/09 02:44:46;;;;;;;;;;;9.10;75.80;;;;;;5018756;28;88122;-39
2023/03/09 02:47:20;;;;;;;;;;;9.10;75.90;;;;;;5019849;28;89863;-40
2023/03/09 02:49:45;;;;;;;;;;;9.10;76.00;;;;;;5017108;28;87412;-39
2023/03/09 02:52:11;;;;;;;;;;;9.10;76.00;;;;;;5019464;28;88542;-39
2023/03/09 02:54:38;;;;;;;;;;;9.10;76.00;;;;;;5008206;28;87160;-39
2023/03/09 02:57:04;;;;;;;;;;;9.10;76.00;;;;;;5009099;28;87617;-39
2023/03/09 02:59:29;;;;;;;;;;;9.10;76.00;;;;;;5020699;28;89752;-39
2023/03/09 03:01:55;;;;;;;;;;;9.00;75.90;;;;;;5019582;28;88104;-39
2023/03/09 03:04:20;;;;;;;;;;;9.00;76.00;;;;;;5017948;28;89277;-39
2023/03/09 03:06:46;;;;;;;;;;;9.00;76.00;;;;;;5017791;28;88135;-40
2023/03/09 03:09:11;;;;;;;;;;;9.00;75.90;;;;;;5019665;28;87190;-39
2023/03/09 03:11:37;;;;;;;;;;;9.00;76.00;;;;;;5019091;28;88137;-39
2023/03/09 03:14:02;;;;;;;;;;;9.00;75.90;;;;;;5012039;28;89586;-39
2023/03/09 03:16:28;;;;;;;;;;;9.00;75.90;;;;;;5010144;28;87212;-39
2023/03/09 03:18:53;;;;;;;;;;;9.00;76.00;;;;;;5007382;28;87430;-40
2023/03/09 03:21:19;;;;;;;;;;;9.00;75.90;;;;;;5009986;28;87103;-39
2023/03/09 03:23:44;;;;;;;;;;;9.00;76.00;;;;;;5020038;28;88775;-40
2023/03/09 03:26:11;;;;;;;;;;;9.00;75.80;;;;;;5016906;28;90441;-39
2023/03/09 03:28:36;;;;;;;;;;;9.00;75.90;;;;;;5017357;28;87132;-39
2023/03/09 03:31:02;;;;;;;;;;;9.00;75.90;;;;;;5018215;28;88378;-39
2023/03/09 03:33:28;;;;;;;;;;;9.00;76.00;;;;;;5016109;28;88448;-39
2023/03/09 03:35:54;;;;;;;;;;;8.90;75.90;;;;;;5003717;28;87148;-39
2023/03/09 03:38:19;;;;;;;;;;;9.00;75.90;;;;;;5014807;28;88512;-39
2023/03/09 03:40:45;;;;;;;;;;;8.90;75.90;;;;;;5022933;28;89744;-39
2023/03/09 03:43:10;;;;;;;;;;;8.90;75.90;;;;;;5016771;28;88900;-39
2023/03/09 03:45:36;;;;;;;;;;;8.90;75.90;;;;;;5018046;28;89504;-39
2023/03/09 03:48:01;;;;;;;;;;;8.90;75.90;;;;;;5019112;28;87263;-40
2023/03/09 03:50:27;;;;;;;;;;;8.90;75.90;;;;;;5003001;28;89363;-40
2023/03/09 03:52:52;;;;;;;;;;;8.90;76.00;;;;;;5003420;28;89620;-39
2023/03/09 03:55:18;;;;;;;;;;;8.90;76.00;;;;;;5003570;28;87197;-39
2023/03/09 03:57:43;;;;;;;;;;;8.90;76.00;;;;;;5020819;28;88354;-39
2023/03/09 04:00:11;;;;;;;;;;;8.90;76.00;;;;;;5016266;28;89159;-39
2023/03/09 04:02:38;;;;;;;;;;;8.90;76.00;;;;;;5006606;28;87128;-40
2023/03/09 04:05:03;;;;;;;;;;;8.90;75.90;;;;;;5008384;28;89311;-39
2023/03/09 04:07:29;;;;;;;;;;;8.90;76.00;;;;;;5013197;28;86484;-39
2023/03/09 04:09:54;;;;;;;;;;;8.90;75.90;;;;;;5003272;28;87323;-39
2023/03/09 04:12:20;;;;;;;;;;;8.80;75.90;;;;;;5002940;28;89661;-39
2023/03/09 04:14:45;;;;;;;;;;;8.80;75.90;;;;;;5002953;28;88091;-40
2023/03/09 04:17:11;;;;;;;;;;;8.80;76.00;;;;;;5015404;28;88890;-39
2023/03/09 04:19:36;;;;;;;;;;;8.80;76.00;;;;;;5002991;28;88233;-39
2023/03/09 04:22:02;;;;;;;;;;;8.80;75.90;;;;;;5005833;28;87264;-40
2023/03/09 04:24:27;;;;;;;;;;;8.80;75.90;;;;;;5018264;28;87898;-39
2023/03/09 04:26:53;;;;;;;;;;;8.80;75.90;;;;;;5018156;28;87277;-39
2023/03/09 04:29:19;;;;;;;;;;;8.80;75.90;;;;;;5012451;28;89496;-39
2023/03/09 04:31:44;;;;;;;;;;;8.80;75.90;;;;;;5004629;28;88194;-40
2023/03/09 04:34:10;;;;;;;;;;;8.80;76.00;;;;;;5002954;28;87758;-39
2023/03/09 04:36:36;;;;;;;;;;;8.80;76.00;;;;;;5011669;28;88953;-39
2023/03/09 04:39:02;;;;;;;;;;;8.70;75.90;;;;;;5016529;28;90448;-39
2023/03/09 04:41:27;;;;;;;;;;;8.70;76.00;;;;;;5005971;28;87767;-39
2023/03/09 04:43:53;;;;;;;;;;;8.70;75.90;;;;;;5008230;28;88323;-39
2023/03/09 04:46:18;;;;;;;;;;;8.70;75.90;;;;;;5003039;28;87622;-40
2023/03/09 04:48:44;;;;;;;;;;;8.70;75.90;;;;;;5002577;28;88813;-39
2023/03/09 04:51:09;;;;;;;;;;;8.70;75.90;;;;;;5002408;28;89527;-39
2023/03/09 04:53:35;;;;;;;;;;;8.70;75.90;;;;;;5014640;28;87978;-39
2023/03/09 04:56:00;;;;;;;;;;;8.70;75.90;;;;;;5012694;28;88811;-40
2023/03/09 04:58:26;;;;;;;;;;;8.70;75.90;;;;;;5020436;28;89293;-39
2023/03/09 05:00:51;;;;;;;;;;;8.70;75.90;;;;;;5008442;28;87140;-39
2023/03/09 05:03:17;;;;;;;;;;;8.70;75.80;;;;;;5002608;28;88789;-39
2023/03/09 05:05:43;;;;;;;;;;;8.70;75.90;;;;;;5018118;28;89692;-39
2023/03/09 05:08:08;;;;;;;;;;;8.70;75.80;;;;;;5016482;28;88808;-40
2023/03/09 05:10:34;;;;;;;;;;;8.70;76.00;;;;;;5018968;28;89521;-40
2023/03/09 05:12:59;;;;;;;;;;;8.70;75.90;;;;;;5022389;28;87165;-39
2023/03/09 05:15:25;;;;;;;;;;;8.60;75.70;;;;;;5010862;28;88902;-39
2023/03/09 05:17:50;;;;;;;;;;;8.60;75.90;;;;;;5011475;28;88754;-40
2023/03/09 05:20:16;;;;;;;;;;;8.60;75.70;;;;;;5011972;28;86395;-39
2023/03/09 05:22:42;;;;;;;;;;;8.60;75.90;;;;;;5012069;28;87910;-39
2023/03/09 05:25:07;;;;;;;;;;;8.60;75.70;;;;;;5008494;28;89517;-40
2023/03/09 05:27:33;;;;;;;;;;;8.60;75.90;;;;;;5016939;28;88794;-39
2023/03/09 05:29:59;;;;;;;;;;;8.60;75.90;;;;;;5009789;28;89590;-40
2023/03/09 05:32:24;;;;;;;;;;;8.60;75.80;;;;;;5013906;28;87224;-39
2023/03/09 05:34:50;;;;;;;;;;;8.60;76.00;;;;;;5007440;28;88668;-40
2023/03/09 05:37:15;;;;;;;;;;;8.60;75.90;;;;;;5010764;28;88620;-39
2023/03/09 05:39:41;;;;;;;;;;;8.60;75.90;;;;;;5010656;28;87349;-39
2023/03/09 05:42:06;;;;;;;;;;;8.60;75.80;;;;;;5019944;28;88895;-39
2023/03/09 05:44:32;;;;;;;;;;;8.60;75.70;;;;;;5018697;28;88684;-39
2023/03/09 05:46:58;;;;;;;;;;;8.60;75.80;;;;;;5018435;28;87914;-39
2023/03/09 05:49:27;;;;;;;;;;;8.60;75.90;;;;;;5011952;28;89022;-39
2023/03/09 05:51:53;;;;;;;;;;;8.60;75.90;;;;;;5015936;28;88908;-38
2023/03/09 05:54:18;;;;;;;;;;;8.60;75.70;;;;;;5005724;28;88252;-39
2023/03/09 05:56:44;;;;;;;;;;;8.60;75.90;;;;;;5018019;28;88192;-39
2023/03/09 05:59:09;;;;;;;;;;;8.60;75.80;;;;;;5019824;28;87307;-39
2023/03/09 06:01:35;;;;;;;;;;;8.60;75.90;;;;;;5009652;28;88187;-39
2023/03/09 06:04:00;;;;;;;;;;;8.60;75.70;;;;;;5020299;28;88324;-39
2023/03/09 06:06:26;;;;;;;;;;;8.60;75.90;;;;;;5014695;28;87699;-39
2023/03/09 06:08:51;;;;;;;;;;;8.60;75.80;;;;;;5006259;28;87129;-40
2023/03/09 06:11:17;;;;;;;;;;;8.60;75.80;;;;;;5020002;28;89362;-39
2023/03/09 06:13:43;;;;;;;;;;;8.60;75.70;;;;;;5016321;28;87548;-39
2023/03/09 06:16:11;;;;;;;;;;;8.60;75.80;;;;;;5011997;28;90353;-40
2023/03/09 06:18:37;;;;;;;;;;;8.60;75.70;;;;;;5010019;28;87202;-39
2023/03/09 06:21:04;;;;;;;;;;;8.60;75.80;;;;;;5009037;28;88592;-39
2023/03/09 06:23:29;;;;;;;;;;;8.60;75.70;;;;;;5014865;28;89820;-39
2023/03/09 06:25:55;;;;;;;;;;;8.60;75.70;;;;;;5018334;28;87287;-38
2023/03/09 06:28:20;;;;;;;;;;;8.60;75.80;;;;;;5004995;28;88474;-39
2023/03/09 06:30:46;;;;;;;;;;;8.60;75.70;;;;;;5008874;28;88235;-40
2023/03/09 06:33:11;;;;;;;;;;;8.60;75.70;;;;;;5017217;28;86367;-39
2023/03/09 06:35:37;;;;;;;;;;;8.60;75.70;;;;;;5007978;28;89252;-39
2023/03/09 06:38:03;;;;;;;;;;;8.60;75.70;;;;;;5005164;28;87129;-39
2023/03/09 06:40:29;;;;;;;;;;;8.60;75.70;;;;;;5012555;28;88985;-39
2023/03/09 06:42:54;;;;;;;;;;;8.60;75.70;;;;;;5008624;28;89411;-40
2023/03/09 06:45:21;;;;;;;;;;;8.60;75.60;;;;;;5015014;28;87755;-40
2023/03/09 06:47:46;;;;;;;;;;;8.60;75.60;;;;;;5009157;28;88777;-39
2023/03/09 06:50:12;;;;;;;;;;;8.60;75.70;;;;;;5013296;28;89475;-40
2023/03/09 06:52:38;;;;;;;;;;;8.60;75.70;;;;;;5007963;28;87161;-39
2023/03/09 06:55:03;;;;;;;;;;;8.60;75.70;;;;;;5007754;28;90097;-39
2023/03/09 06:57:29;;;;;;;;;;;8.60;75.70;;;;;;5014411;28;86372;-39
2023/03/09 06:59:54;;;;;;;;;;;8.60;75.70;;;;;;5006024;28;88935;-39
2023/03/09 07:02:20;;;;;;;;;;;8.60;75.70;;;;;;5009270;28;89426;-39
2023/03/09 07:04:46;;;;;;;;;;;8.60;75.70;;;;;;5008063;28;88149;-39
2023/03/09 07:07:12;;;;;;;;;;;8.60;75.70;;;;;;5009445;28;88343;-39
2023/03/09 07:09:38;;;;;;;;;;;8.60;75.60;;;;;;5012477;28;88400;-39
2023/03/09 07:12:04;;;;;;;;;;;8.60;75.70;;;;;;5012754;28;87494;-40
2023/03/09 07:14:29;;;;;;;;;;;8.60;75.60;;;;;;5012745;28;88075;-39
2023/03/09 07:16:55;;;;;;;;;;;8.60;75.70;;;;;;5004395;28;88014;-40
2023/03/09 07:19:21;;;;;;;;;;;8.60;75.70;;;;;;5005707;28;88923;-39
2023/03/09 07:21:46;;;;;;;;;;;8.60;75.70;;;;;;5010518;28;86474;-39
2023/03/09 07:24:12;;;;;;;;;;;8.70;75.80;;;;;;5005931;28;87175;-39
2023/03/09 07:26:37;;;;;;;;;;;8.60;75.70;;;;;;5004294;28;87128;-39
2023/03/09 07:29:03;;;;;;;;;;;8.60;75.60;;;;;;5003523;28;90974;-39
2023/03/09 07:31:29;;;;;;;;;;;8.60;75.70;;;;;;5014444;28;87042;-39
2023/03/09 07:33:55;;;;;;;;;;;8.60;75.70;;;;;;5006401;28;89398;-39
2023/03/09 07:36:20;;;;;;;;;;;8.60;75.70;;;;;;5006720;28;89411;-39
2023/03/09 07:38:47;;;;;;;;;;;8.60;75.70;;;;;;5015808;28;88753;-39
2023/03/09 07:41:13;;;;;;;;;;;8.60;75.70;;;;;;5016690;28;89297;-40
2023/03/09 07:43:43;;;;;;;;;;;8.70;75.80;;;;;;5010942;28;87144;-39
2023/03/09 07:46:13;;;;;;;;;;;8.70;75.80;;;;;;5021200;28;88555;-39
2023/03/09 07:48:39;;;;;;;;;;;8.70;75.80;;;;;;5014481;28;89596;-39
2023/03/09 07:51:05;;;;;;;;;;;8.70;75.70;;;;;;5018277;28;88043;-39
2023/03/09 07:53:32;;;;;;;;;;;8.70;75.70;;;;;;5016718;28;88824;-39
2023/03/09 07:55:58;;;;;;;;;;;8.70;75.60;;;;;;5004161;28;89094;-39
2023/03/09 07:58:24;;;;;;;;;;;8.70;75.60;;;;;;5009313;28;87084;-39
2023/03/09 08:00:49;;;;;;;;;;;8.70;75.70;;;;;;5015618;28;89977;-39
2023/03/09 08:03:15;;;;;;;;;;;8.70;75.70;;;;;;5011863;28;87191;-39
2023/03/09 08:05:41;;;;;;;;;;;8.70;75.70;;;;;;5003286;28;88815;-39
2023/03/09 08:08:07;;;;;;;;;;;8.70;75.40;;;;;;5003095;28;89270;-39
2023/03/09 08:10:33;;;;;;;;;;;8.70;75.50;;;;;;5004054;28;86547;-39
2023/03/09 08:12:59;;;;;;;;;;;8.70;75.40;;;;;;5007458;28;88627;-39
2023/03/09 08:15:25;;;;;;;;;;;8.70;75.30;;;;;;5017381;28;89229;-39
2023/03/09 08:17:50;;;;;;;;;;;8.70;75.40;;;;;;5017552;28;88912;-39
2023/03/09 08:20:16;;;;;;;;;;;8.80;75.40;;;;;;5006361;28;89249;-39
2023/03/09 08:22:41;;;;;;;;;;;8.70;75.40;;;;;;5003304;28;88095;-39
2023/03/09 08:25:07;;;;;;;;;;;8.80;75.50;;;;;;5003531;28;88720;-39
2023/03/09 08:27:43;;;;;;;;;;;8.80;75.90;;;;;;5002396;28;90652;-39
2023/03/09 08:30:10;;;;;;;;;;;8.80;75.30;;;;;;5005667;28;87226;-39
2023/03/09 08:32:35;;;;;;;;;;;8.80;75.10;;;;;;5015530;28;90530;-39
2023/03/09 08:35:01;;;;;;;;;;;8.80;75.00;;;;;;5010765;28;88323;-39
2023/03/09 08:37:26;;;;;;;;;;;8.80;75.00;;;;;;5002811;28;87013;-39
2023/03/09 08:39:52;;;;;;;;;;;8.80;75.10;;;;;;5005288;28;89174;-39
2023/03/09 08:42:17;;;;;;;;;;;8.80;75.20;;;;;;5002437;28;88596;-39
2023/03/09 08:44:43;;;;;;;;;;;8.80;75.20;;;;;;5006238;28;87438;-39
2023/03/09 08:47:09;;;;;;;;;;;8.80;75.30;;;;;;5004413;28;89409;-39
2023/03/09 08:49:34;;;;;;;;;;;8.90;75.40;;;;;;5002641;28;87207;-39
2023/03/09 08:52:00;;;;;;;;;;;8.90;75.50;;;;;;5002782;28;87984;-39
2023/03/09 08:54:25;;;;;;;;;;;8.90;75.60;;;;;;5008215;28;89518;-39
2023/03/09 08:56:51;;;;;;;;;;;8.90;75.70;;;;;;5016530;28;87760;-39
2023/03/09 08:59:17;;;;;;;;;;;8.90;75.80;;;;;;5003172;28;89434;-39
2023/03/09 09:01:42;;;;;;;;;;;8.90;75.80;;;;;;5005163;28;89444;-39
2023/03/09 09:04:08;;;;;;;;;;;8.90;75.90;;;;;;5007667;28;87844;-39
2023/03/09 09:06:33;;;;;;;;;;;8.90;75.90;;;;;;5001554;28;89705;-40
2023/03/09 09:08:59;;;;;;;;;;;8.90;76.00;;;;;;5002667;28;87192;-39
2023/03/09 09:11:24;;;;;;;;;;;8.90;76.10;;;;;;5002669;28;88763;-39
2023/03/09 09:13:54;;;;;;;;;;;8.90;76.10;;;;;;5007988;28;89523;-39
2023/03/09 09:16:20;;;;;;;;;;;8.90;76.20;;;;;;5016665;28;87121;-39
2023/03/09 09:18:46;;;;;;;;;;;8.90;76.10;;;;;;5002963;28;88505;-40
2023/03/09 09:21:13;;;;;;;;;;;9.00;76.30;;;;;;5003170;28;89408;-39
2023/03/09 09:23:39;;;;;;;;;;;9.00;76.20;;;;;;5017862;28;87178;-39
2023/03/09 09:26:05;;;;;;;;;;;9.00;76.30;;;;;;5014927;28;89523;-39
2023/03/09 09:28:31;;;;;;;;;;;9.00;76.30;;;;;;5017002;28;87046;-40
2023/03/09 09:30:58;;;;;;;;;;;9.00;76.30;;;;;;5012645;28;88098;-39
2023/03/09 09:33:24;;;;;;;;;;;9.00;76.30;;;;;;5003020;28;90026;-39
2023/03/09 09:35:53;;;;;;;;;;;9.00;76.30;;;;;;5002440;28;87727;-39
2023/03/09 09:38:20;;;;;;;;;;;9.00;76.20;;;;;;5002260;28;89116;-40
2023/03/09 09:40:47;;;;;;;;;;;9.00;76.20;;;;;;5002112;28;88048;-39
2023/03/09 09:43:12;;;;;;;;;;;9.10;76.30;;;;;;5002269;28;87128;-39
2023/03/09 09:45:43;;;;;;;;;;;9.00;76.40;;;;;;5014194;28;88668;-39
2023/03/09 09:48:09;;;;;;;;;;;9.00;76.40;;;;;;5006402;28;86498;-39
2023/03/09 09:50:44;;;;;;;;;;;9.00;76.30;;;;;;5003447;28;87950;-39
2023/03/09 09:53:22;;;;;;;;;;;9.10;76.30;;;;;;5015586;28;89274;-39
2023/03/09 09:55:50;;;;;;;;;;;9.10;76.40;;;;;;5018535;28;88074;-39
2023/03/09 09:58:36;;;;;;;;;;;9.10;76.40;;;;;;5007669;28;89373;-39
2023/03/09 10:01:06;;;;;;;;;;;9.10;76.50;;;;;;5010647;28;89321;-39
2023/03/09 10:03:38;;;;;;;;;;;9.10;76.40;;;;;;5016939;28;87311;-39
2023/03/09 10:06:03;;;;;;;;;;;9.10;76.40;;;;;;5018153;28;87877;-39
2023/03/09 10:08:38;;;;;;;;;;;9.10;76.60;;;;;;5008828;28;88977;-39
2023/03/09 10:11:09;;;;;;;;;;;9.20;76.80;;;;;;5005536;28;89039;-39
2023/03/09 10:13:39;;;;;;;;;;;9.20;76.70;;;;;;5004915;28;89278;-39
2023/03/09 10:16:07;;;;;;;;;;;9.20;76.80;;;;;;5005268;28;87168;-39
2023/03/09 10:18:36;;;;;;;;;;;9.20;76.70;;;;;;5006190;28;88662;-40
2023/03/09 10:21:04;;;;;;;;;;;9.20;76.70;;;;;;5007855;28;90397;-39
2023/03/09 10:23:30;;;;;;;;;;;9.20;76.70;;;;;;5006641;28;87175;-39
2023/03/09 10:26:05;;;;;;;;;;;9.20;76.50;;;;;;5013863;28;87348;-39
2023/03/09 10:28:34;;;;;;;;;;;9.20;76.60;;;;;;5004605;28;88476;-39
2023/03/09 10:31:13;;;;;;;;;;;9.20;76.40;;;;;;5023187;28;87386;-40
2023/03/09 10:33:39;;;;;;;;;;;9.20;76.40;;;;;;5018827;28;88954;-39
2023/03/09 10:36:06;;;;;;;;;;;9.30;76.70;;;;;;5008057;28;87761;-39
2023/03/09 10:38:32;;;;;;;;;;;9.30;77.50;;;;;;5005904;28;89848;-39
2023/03/09 10:40:57;;;;;;;;;;;9.30;76.60;;;;;;5004729;28;89614;-39
2023/03/09 10:43:27;;;;;;;;;;;9.30;76.70;;;;;;5006581;28;87912;-39
2023/03/09 10:45:53;;;;;;;;;;;9.30;76.60;;;;;;5005287;28;89075;-39
2023/03/09 10:48:24;;;;;;;;;;;9.40;76.90;;;;;;5008786;28;89441;-39
2023/03/09 10:50:56;;;;;;;;;;;9.40;76.80;;;;;;5010372;28;87131;-39
2023/03/09 10:53:30;;;;;;;;;;;9.30;77.00;;;;;;5008898;28;88657;-39
2023/03/09 10:56:02;;;;;;;;;;;9.40;77.00;;;;;;5012036;28;87277;-39
2023/03/09 10:58:28;;;;;;;;;;;9.40;77.00;;;;;;5014109;28;88816;-39
2023/03/09 11:01:11;;;;;;;;;;;9.40;77.10;;;;;;5004833;28;89893;-40
2023/03/09 11:03:38;;;;;;;;;;;9.40;77.20;;;;;;5010777;28;86518;-39
2023/03/09 11:06:12;;;;;;;;;;;9.40;77.20;;;;;;5008426;28;88730;-39
2023/03/09 11:08:40;;;;;;;;;;;9.40;77.20;;;;;;5017488;28;89174;-40
2023/03/09 11:11:06;;;;;;;;;;;9.40;77.20;;;;;;5015861;28;88477;-39
2023/03/09 11:13:32;;;;;;;;;;;9.50;77.30;;;;;;5021002;28;89815;-39
2023/03/09 11:16:06;;;;;;;;;;;9.50;77.30;;;;;;5010391;28;87840;-40
2023/03/09 11:18:32;;;;;;;;;;;9.50;77.00;;;;;;5004275;28;89654;-39
2023/03/09 11:20:57;;;;;;;;;;;9.50;77.20;;;;;;5003667;28;89420;-40
2023/03/09 11:23:28;;;;;;;;;;;9.50;77.30;;;;;;5003986;28;87176;-39
2023/03/09 11:26:03;;;;;;;;;;;9.50;77.30;;;;;;5015337;28;89445;-40
2023/03/09 11:28:41;;;;;;;;;;;9.60;77.20;;;;;;5013488;28;88670;-39
2023/03/09 11:31:11;;;;;;;;;;;9.60;77.20;;;;;;5010438;28;87127;-40
2023/03/09 11:33:37;;;;;;;;;;;9.60;77.20;;;;;;5004489;28;89080;-39
2023/03/09 11:36:04;;;;;;;;;;;9.70;77.20;;;;;;5006795;28;89107;-39
2023/03/09 11:38:31;;;;;;;;;;;9.60;77.20;;;;;;5014437;28;89173;-39
2023/03/09 11:41:00;;;;;;;;;;;9.70;77.30;;;;;;5015773;28;89233;-39
2023/03/09 11:43:29;;;;;;;;;;;9.70;77.30;;;;;;5017517;28;87130;-39
2023/03/09 11:45:57;;;;;;;;;;;9.70;77.40;;;;;;5019102;28;88100;-39
2023/03/09 11:48:26;;;;;;;;;;;9.80;77.10;;;;;;5003175;28;89426;-39
2023/03/09 11:51:04;;;;;;;;;;;9.70;77.40;;;;;;5004624;28;87184;-39
2023/03/09 11:53:34;;;;;;;;;;;9.80;77.30;;;;;;5013374;28;88862;-40
2023/03/09 11:56:20;;;;;;;;;;;9.80;77.00;;;;;;5004019;28;89629;-40
2023/03/09 11:58:51;;;;;;;;;;;9.80;77.00;;;;;;5010191;28;87561;-39
2023/03/09 12:01:26;;;;;;;;;;;9.80;77.20;;;;;;5006118;28;89199;-39
2023/03/09 12:03:58;;;;;;;;;;;9.90;77.20;;;;;;5009048;28;87212;-40
2023/03/09 12:06:38;;;;;;;;;;;9.80;77.10;;;;;;5004198;28;88595;-39
2023/03/09 12:09:06;;;;;;;;;;;9.90;77.10;;;;;;5009006;28;89597;-38
2023/03/09 12:11:43;;;;;;;;;;;9.90;77.10;;;;;;5004106;28;87473;-39
2023/03/09 12:14:21;;;;;;;;;;;9.90;77.20;;;;;;5008785;28;87956;-39
2023/03/09 12:16:50;;;;;;;;;;;10.00;77.10;;;;;;5003359;28;89402;-39
2023/03/09 12:19:17;;;;;;;;;;;10.00;76.90;;;;;;5004535;28;86366;-39
2023/03/09 12:22:02;;;;;;;;;;;10.00;76.70;;;;;;5013735;28;88427;-39
2023/03/09 12:24:37;;;;;;;;;;;10.00;76.80;;;;;;5009446;28;87423;-39
2023/03/09 12:27:17;;;;;;;;;;;10.10;76.80;;;;;;5006694;28;88826;-39
2023/03/09 12:29:54;;;;;;;;;;;10.10;77.00;;;;;;5003214;28;88495;-40
2023/03/09 12:32:32;;;;;;;;;;;10.10;77.00;;;;;;5003887;28;87185;-39
2023/03/09 12:34:59;;;;;;;;;;;10.10;76.50;;;;;;5008984;28;88679;-39
2023/03/09 12:37:30;;;;;;;;;;;10.10;76.80;;;;;;5006060;28;89376;-39
2023/03/09 12:39:59;;;;;;;;;;;10.10;76.90;;;;;;5012938;28;87254;-39
2023/03/09 12:42:24;;;;;;;;;;;10.20;76.60;;;;;;5012373;28;87721;-39
2023/03/09 12:44:50;;;;;;;;;;;10.20;76.60;;;;;;5011939;28;88783;-39
2023/03/09 12:47:21;;;;;;;;;;;10.20;76.40;;;;;;5008150;28;88110;-39
2023/03/09 12:49:54;;;;;;;;;;;10.30;76.50;;;;;;5011764;28;89218;-39
2023/03/09 12:52:26;;;;;;;;;;;10.30;76.50;;;;;;5018662;28;88241;-39
2023/03/09 12:54:59;;;;;;;;;;;10.30;77.30;;;;;;5003328;28;89545;-39
2023/03/09 12:57:25;;;;;;;;;;;10.30;76.90;;;;;;5008259;28;90366;-39
2023/03/09 12:59:51;;;;;;;;;;;10.30;76.20;;;;;;5016941;28;87181;-39
2023/03/09 13:02:24;;;;;;;;;;;10.40;76.80;;;;;;5010935;28;87270;-39
2023/03/09 13:05:09;;;;;;;;;;;10.40;76.70;;;;;;5006910;28;89362;-39
2023/03/09 13:07:34;;;;;;;;;;;10.40;76.00;;;;;;5007725;28;87989;-39
2023/03/09 13:10:00;;;;;;;;;;;10.40;76.40;;;;;;5003399;28;89877;-39
2023/03/09 13:12:29;;;;;;;;;;;10.50;76.70;;;;;;5003968;28;87980;-40
2023/03/09 13:15:14;;;;;;;;;;;10.50;76.20;;;;;;5002829;28;89121;-39
2023/03/09 13:17:39;;;;;;;;;;;10.50;76.80;;;;;;5007695;28;90320;-39
2023/03/09 13:20:16;;;;;;;;;;;10.50;76.40;;;;;;5008739;28;87807;-39
2023/03/09 13:22:43;;;;;;;;;;;10.60;76.60;;;;;;5005134;28;87968;-39
2023/03/09 13:25:14;;;;;;;;;;;10.60;76.80;;;;;;5004293;28;89776;-39
2023/03/09 13:27:40;;;;;;;;;;;10.60;76.80;;;;;;5005900;28;87210;-43
2023/03/09 13:30:12;;;;;;;;;;;10.60;76.60;;;;;;5007045;28;88005;-46
2023/03/09 13:32:46;;;;;;;;;;;10.60;77.00;;;;;;5006253;28;87281;-39
2023/03/09 13:35:21;;;;;;;;;;;10.60;76.80;;;;;;5007286;28;88813;-39
2023/03/09 13:37:47;;;;;;;;;;;10.70;76.30;;;;;;5012684;28;88235;-40
2023/03/09 13:40:15;;;;;;;;;;;10.70;76.40;;;;;;5011462;28;87909;-39
2023/03/09 13:42:43;;;;;;;;;;;10.70;76.60;;;;;;5014307;28;88697;-39
2023/03/09 13:45:17;;;;;;;;;;;10.70;76.50;;;;;;5019606;28;90144;-40
2023/03/09 13:47:42;;;;;;;;;;;10.70;76.60;;;;;;5019208;28;87134;-40
2023/03/09 13:50:15;;;;;;;;;;;10.80;76.70;;;;;;5022548;28;87760;-40
2023/03/09 13:52:57;;;;;;;;;;;10.80;76.60;;;;;;5009849;28;88000;-39
2023/03/09 13:55:25;;;;;;;;;;;10.90;76.20;;;;;;5008708;28;88003;-40
2023/03/09 13:57:51;;;;;;;;;;;10.90;76.30;;;;;;5011512;28;89482;-39
2023/03/09 14:00:19;;;;;;;;;;;10.90;76.60;;;;;;5015643;28;86400;-40
2023/03/09 14:02:45;;;;;;;;;;;10.90;76.40;;;;;;5015115;28;88009;-40
2023/03/09 14:05:13;;;;;;;;;;;10.90;76.70;;;;;;5007141;28;89369;-39
2023/03/09 14:07:43;;;;;;;;;;;10.90;76.70;;;;;;5010813;28;88634;-40
2023/03/09 14:10:24;;;;;;;;;;;10.90;76.40;;;;;;5012926;28;89636;-39
2023/03/09 14:12:55;;;;;;;;;;;10.90;76.60;;;;;;5010641;28;88585;-39
2023/03/09 14:15:21;;;;;;;;;;;10.90;76.40;;;;;;5009485;28;88391;-39
2023/03/09 14:17:47;;;;;;;;;;;10.90;76.40;;;;;;5004840;28;89384;-39
2023/03/09 14:20:20;;;;;;;;;;;10.90;76.50;;;;;;5005752;28;88058;-39
2023/03/09 14:22:46;;;;;;;;;;;11.00;76.50;;;;;;5009162;28;89454;-39
2023/03/09 14:25:23;;;;;;;;;;;11.00;76.80;;;;;;5005312;28;88495;-39
2023/03/09 14:27:49;;;;;;;;;;;11.00;76.80;;;;;;5018252;28;87316;-40
2023/03/09 14:30:27;;;;;;;;;;;11.00;76.60;;;;;;5005386;28;88739;-39